Time;durP1;ratioP1;P1;durP2;ratioP2;P2;SDS_P1;SDS_P2;PMS_P1;PMS_P2;Temp;Humidity;BMP_temperature;BMP_pressure;BME280_temperature;BME280_humidity;BME280_pressure;Samples;Min_cycle;Max_cycle;Signal;HPM_P1;HPM_P2
2022/05/23 00:00:17;;;;;;;7.70;2.70;;;15.10;92.30;;;;;;5026582;28;20044;-57
2022/05/23 00:02:44;;;;;;;12.70;2.38;;;15.10;92.40;;;;;;5028454;28;20041;-59
2022/05/23 00:05:10;;;;;;;10.65;3.35;;;15.10;92.60;;;;;;5018530;28;20040;-58
2022/05/23 00:07:40;;;;;;;5.60;2.70;;;15.10;92.70;;;;;;5037502;28;20126;-57
2022/05/23 00:10:07;;;;;;;6.07;2.47;;;15.00;92.80;;;;;;5053465;28;20474;-60
2022/05/23 00:12:33;;;;;;;7.40;2.88;;;14.90;93.10;;;;;;5054052;28;20558;-57
2022/05/23 00:14:59;;;;;;;7.75;2.70;;;14.90;93.30;;;;;;5036906;28;20055;-58
2022/05/23 00:17:25;;;;;;;7.30;2.50;;;14.90;93.50;;;;;;5053488;28;20037;-57
2022/05/23 00:19:51;;;;;;;10.98;2.75;;;14.80;93.70;;;;;;5053531;28;20049;-58
2022/05/23 00:22:17;;;;;;;6.07;2.30;;;14.80;94.00;;;;;;5053184;28;20059;-58
2022/05/23 00:24:44;;;;;;;10.20;2.80;;;14.80;94.20;;;;;;5053281;28;20101;-57
2022/05/23 00:27:13;;;;;;;6.93;2.40;;;14.70;94.50;;;;;;5053064;28;20127;-59
2022/05/23 00:29:40;;;;;;;5.97;2.60;;;14.70;94.90;;;;;;5037773;28;20044;-60
2022/05/23 00:37:35;;;;;;;6.32;2.95;;;14.50;95.70;;;;;;5036525;28;20048;-60
2022/05/23 00:40:02;;;;;;;7.22;3.20;;;14.40;96.30;;;;;;5054226;28;20055;-58
2022/05/23 00:45:18;;;;;;;9.82;3.38;;;14.40;96.40;;;;;;5035243;28;20143;-59
2022/05/23 00:47:45;;;;;;;6.47;3.22;;;14.30;96.70;;;;;;5052934;28;20048;-59
2022/05/23 00:50:15;;;;;;;7.43;3.28;;;14.30;96.80;;;;;;5036318;28;20060;-59
2022/05/23 00:52:50;;;;;;;6.97;3.28;;;14.30;97.00;;;;;;5054833;28;20045;-57
2022/05/23 00:55:23;;;;;;;7.25;3.13;;;14.20;97.20;;;;;;5033124;28;20044;-59
2022/05/23 00:57:51;;;;;;;6.35;3.30;;;14.20;97.30;;;;;;5052236;28;20044;-57
2022/05/23 01:00:18;;;;;;;9.02;3.17;;;14.10;97.50;;;;;;5037524;28;20052;-57
2022/05/23 01:02:59;;;;;;;8.98;3.55;;;14.10;97.60;;;;;;5041637;28;20063;-59
2022/05/23 01:05:25;;;;;;;7.90;3.47;;;14.10;97.80;;;;;;5051596;28;20045;-58
2022/05/23 01:07:51;;;;;;;8.75;3.42;;;14.00;97.80;;;;;;5052457;28;20053;-57
2022/05/23 01:10:16;;;;;;;10.70;4.05;;;14.00;98.10;;;;;;5034723;28;20056;-57
2022/05/23 01:12:42;;;;;;;5.03;3.13;;;14.00;98.30;;;;;;5053533;28;20056;-59
2022/05/23 01:15:21;;;;;;;6.07;3.15;;;14.00;98.40;;;;;;5050965;28;20597;-58
2022/05/23 01:17:46;;;;;;;5.20;3.10;;;13.90;98.70;;;;;;5036871;28;20119;-59
2022/05/23 01:20:13;;;;;;;6.55;3.35;;;13.90;98.80;;;;;;5035532;28;20055;-57
2022/05/23 01:22:57;;;;;;;6.82;3.45;;;13.90;99.00;;;;;;5050912;28;20044;-58
2022/05/23 01:25:44;;;;;;;5.03;3.10;;;13.80;99.10;;;;;;5042002;28;20094;-57
2022/05/23 01:28:11;;;;;;;6.82;3.60;;;13.80;99.40;;;;;;5054415;28;20048;-60
2022/05/23 01:30:40;;;;;;;5.32;3.30;;;13.70;99.50;;;;;;5048303;28;20044;-58
2022/05/23 01:33:07;;;;;;;4.63;3.33;;;13.70;99.70;;;;;;5050428;28;20494;-57
2022/05/23 01:35:33;;;;;;;5.72;3.40;;;13.70;99.80;;;;;;5054436;28;20497;-57
2022/05/23 01:37:59;;;;;;;9.27;4.22;;;13.60;99.80;;;;;;5049054;28;20486;-58
2022/05/23 01:40:26;;;;;;;6.60;3.53;;;13.60;99.90;;;;;;5031824;28;20063;-58
2022/05/23 01:42:52;;;;;;;5.50;3.40;;;13.60;99.90;;;;;;5050944;28;20705;-58
2022/05/23 01:45:26;;;;;;;8.93;4.20;;;13.50;99.90;;;;;;5041211;28;20055;-57
2022/05/23 01:47:53;;;;;;;9.20;3.72;;;13.50;99.90;;;;;;5053351;28;20055;-57
2022/05/23 01:50:21;;;;;;;9.88;4.07;;;13.50;99.90;;;;;;5037447;28;20079;-57
2022/05/23 01:52:47;;;;;;;7.90;4.50;;;13.50;99.90;;;;;;5040083;28;20040;-59
2022/05/23 01:55:13;;;;;;;7.03;4.20;;;13.50;99.90;;;;;;5033123;28;20494;-57
2022/05/23 01:57:38;;;;;;;8.77;4.47;;;13.50;99.90;;;;;;5054752;28;20541;-57
2022/05/23 02:02:51;;;;;;;7.22;4.45;;;13.50;99.90;;;;;;5052934;28;20055;-57
2022/05/23 02:05:18;;;;;;;8.32;5.03;;;13.50;99.90;;;;;;5018369;28;20044;-57
2022/05/23 02:07:44;;;;;;;8.88;4.80;;;13.50;99.90;;;;;;5035612;28;20511;-57
2022/05/23 02:10:11;;;;;;;9.40;4.22;;;13.50;99.90;;;;;;5024383;28;20064;-57
2022/05/23 02:12:37;;;;;;;8.68;4.15;;;13.50;99.90;;;;;;5011094;28;20048;-57
2022/05/23 02:15:05;;;;;;;7.38;4.55;;;13.50;99.90;;;;;;5027733;28;20487;-57
2022/05/23 02:17:31;;;;;;;9.80;4.93;;;13.40;99.90;;;;;;5022730;28;20816;-57
2022/05/23 02:19:57;;;;;;;5.72;4.32;;;13.40;99.90;;;;;;5028997;28;20041;-59
2022/05/23 02:22:23;;;;;;;7.32;3.97;;;13.40;99.90;;;;;;5017759;28;20079;-57
2022/05/23 02:24:49;;;;;;;8.02;4.22;;;13.40;99.90;;;;;;5024562;28;20136;-59
2022/05/23 02:27:15;;;;;;;6.30;4.00;;;13.40;99.90;;;;;;5028722;28;20127;-58
2022/05/23 02:29:40;;;;;;;6.18;4.07;;;13.40;99.90;;;;;;5028541;28;20087;-57
2022/05/23 02:32:08;;;;;;;6.07;3.78;;;13.40;99.90;;;;;;5024925;28;24274;-59
2022/05/23 02:34:34;;;;;;;6.80;3.92;;;13.40;99.90;;;;;;5016832;28;20045;-59
2022/05/23 02:37:00;;;;;;;5.35;3.88;;;13.40;99.90;;;;;;5008957;28;20045;-57
2022/05/23 02:39:26;;;;;;;6.55;3.83;;;13.40;99.90;;;;;;5029050;28;20095;-58
2022/05/23 02:41:52;;;;;;;6.80;3.92;;;13.40;99.90;;;;;;5026883;28;24818;-59
2022/05/23 02:44:18;;;;;;;5.85;3.83;;;13.40;99.90;;;;;;4992323;28;20045;-58
2022/05/23 02:46:44;;;;;;;8.30;4.32;;;13.40;99.90;;;;;;5025342;28;20108;-57
2022/05/23 02:49:12;;;;;;;6.32;3.85;;;13.40;99.90;;;;;;5016529;28;20084;-57
2022/05/23 02:51:38;;;;;;;6.85;4.07;;;13.40;99.90;;;;;;5007751;28;20057;-57
2022/05/23 02:54:06;;;;;;;6.45;4.22;;;13.40;99.90;;;;;;5024208;28;20043;-57
2022/05/23 02:56:32;;;;;;;6.93;4.07;;;13.40;99.90;;;;;;5012430;28;20037;-58
2022/05/23 02:58:58;;;;;;;8.82;4.50;;;13.40;99.90;;;;;;5030799;28;20110;-59
2022/05/23 03:01:25;;;;;;;8.30;3.88;;;13.40;99.90;;;;;;5028909;28;20059;-57
2022/05/23 03:03:50;;;;;;;6.65;4.32;;;13.40;99.90;;;;;;5028856;28;20049;-60
2022/05/23 03:06:16;;;;;;;7.38;4.00;;;13.40;99.90;;;;;;5040620;28;20080;-58
2022/05/23 03:08:42;;;;;;;7.45;4.22;;;13.40;99.90;;;;;;5044144;28;20061;-57
2022/05/23 03:11:08;;;;;;;8.13;4.05;;;13.30;99.90;;;;;;5045052;28;20437;-60
2022/05/23 03:13:35;;;;;;;4.90;3.85;;;13.30;99.90;;;;;;5025507;28;20048;-57
2022/05/23 03:16:05;;;;;;;6.40;4.57;;;13.30;99.90;;;;;;5042937;28;20457;-57
2022/05/23 03:18:31;;;;;;;8.25;4.32;;;13.30;99.90;;;;;;5032638;28;20040;-57
2022/05/23 03:21:01;;;;;;;7.05;4.20;;;13.30;99.90;;;;;;5037612;28;20048;-57
2022/05/23 03:29:02;;;;;;;9.73;4.10;;;13.30;99.90;;;;;;5040070;28;20063;-57
2022/05/23 03:31:28;;;;;;;7.00;4.47;;;13.20;99.90;;;;;;5043899;28;20090;-57
2022/05/23 03:33:54;;;;;;;8.82;4.10;;;13.20;99.90;;;;;;5047568;28;20136;-59
2022/05/23 03:36:21;;;;;;;8.05;4.80;;;13.20;99.90;;;;;;5048195;28;20037;-58
2022/05/23 03:38:47;;;;;;;8.73;4.60;;;13.20;99.90;;;;;;5050704;28;23920;-59
2022/05/23 03:41:13;;;;;;;7.18;4.72;;;13.20;99.90;;;;;;5054027;28;20048;-58
2022/05/23 03:43:39;;;;;;;8.02;4.53;;;13.20;99.90;;;;;;5051701;28;20354;-59
2022/05/23 03:46:11;;;;;;;8.90;4.20;;;13.20;99.90;;;;;;5053166;28;20054;-57
2022/05/23 03:48:37;;;;;;;11.88;4.72;;;13.20;99.90;;;;;;5055439;28;20044;-58
2022/05/23 03:51:04;;;;;;;6.97;4.57;;;13.20;99.90;;;;;;5051580;28;20256;-57
2022/05/23 03:53:30;;;;;;;11.10;4.30;;;13.20;99.90;;;;;;5031980;28;20463;-58
2022/05/23 03:55:57;;;;;;;8.85;4.85;;;13.20;99.90;;;;;;5031582;28;20106;-57
2022/05/23 03:58:24;;;;;;;10.35;4.70;;;13.20;99.90;;;;;;5049891;28;20044;-59
2022/05/23 04:00:50;;;;;;;6.55;4.18;;;13.20;99.90;;;;;;5056945;28;20072;-59
2022/05/23 04:03:17;;;;;;;8.38;4.68;;;13.20;99.90;;;;;;5054354;28;20542;-57
2022/05/23 04:05:43;;;;;;;10.05;4.80;;;13.30;99.90;;;;;;5067469;28;20490;-59
2022/05/23 04:08:10;;;;;;;7.28;4.63;;;13.30;99.90;;;;;;5055411;28;20144;-57
2022/05/23 04:10:36;;;;;;;8.23;4.70;;;13.30;99.90;;;;;;5036107;28;20044;-58
2022/05/23 04:13:02;;;;;;;6.38;4.10;;;13.30;99.90;;;;;;5054138;28;20040;-59
2022/05/23 04:15:29;;;;;;;7.68;4.50;;;13.30;99.90;;;;;;5058162;28;20513;-59
2022/05/23 04:17:55;;;;;;;10.00;4.75;;;13.30;99.90;;;;;;5055222;28;20482;-57
2022/05/23 04:20:22;;;;;;;10.85;4.90;;;13.30;99.90;;;;;;5057586;28;20090;-61
2022/05/23 04:22:48;;;;;;;5.45;4.30;;;13.30;99.90;;;;;;5057595;28;20674;-57
2022/05/23 04:25:14;;;;;;;10.60;4.25;;;13.40;99.90;;;;;;5053900;28;20131;-58
2022/05/23 04:27:40;;;;;;;7.32;4.70;;;13.40;99.90;;;;;;5056877;28;20054;-57
2022/05/23 04:30:10;;;;;;;10.43;4.72;;;13.40;99.90;;;;;;5071585;28;20510;-58
2022/05/23 04:35:22;;;;;;;10.80;4.93;;;13.40;99.90;;;;;;5058791;28;20068;-59
2022/05/23 04:37:52;;;;;;;8.07;5.57;;;13.40;99.90;;;;;;5044641;28;20044;-58
2022/05/23 04:40:22;;;;;;;12.88;5.38;;;13.40;99.90;;;;;;5056068;28;20052;-58
2022/05/23 04:42:48;;;;;;;8.93;4.90;;;13.40;99.90;;;;;;5056787;28;20760;-58
2022/05/23 04:45:15;;;;;;;10.32;5.30;;;13.40;99.90;;;;;;5058697;28;20106;-59
2022/05/23 04:50:27;;;;;;;9.27;5.38;;;13.40;99.90;;;;;;5055522;28;20191;-60
2022/05/23 04:52:53;;;;;;;9.70;5.50;;;13.50;99.90;;;;;;5024987;28;20052;-58
2022/05/23 04:55:19;;;;;;;9.10;5.85;;;13.50;99.90;;;;;;5051497;28;20478;-58
2022/05/23 04:57:45;;;;;;;14.57;5.53;;;13.60;99.90;;;;;;5055587;28;20056;-60
2022/05/23 05:00:14;;;;;;;10.60;6.22;;;13.60;99.90;;;;;;5054813;28;20630;-60
2022/05/23 05:02:40;;;;;;;9.80;5.57;;;13.70;99.90;;;;;;5059487;28;20037;-59
2022/05/23 05:05:08;;;;;;;10.73;5.55;;;13.70;99.90;;;;;;5040817;28;20040;-60
2022/05/23 05:07:34;;;;;;;11.50;5.20;;;13.80;99.90;;;;;;5025932;28;20088;-59
2022/05/23 05:10:00;;;;;;;10.32;5.63;;;13.80;99.90;;;;;;5024677;28;20567;-58
2022/05/23 05:12:26;;;;;;;10.57;5.53;;;13.90;99.90;;;;;;5011178;28;20055;-58
2022/05/23 05:14:52;;;;;;;6.20;4.82;;;13.90;99.90;;;;;;5019016;28;20476;-59
2022/05/23 05:17:18;;;;;;;7.72;5.30;;;14.00;99.90;;;;;;5012213;28;20434;-60
2022/05/23 05:19:44;;;;;;;8.77;5.25;;;14.10;99.90;;;;;;5012567;28;20052;-58
2022/05/23 05:22:10;;;;;;;11.65;5.55;;;14.10;99.90;;;;;;5030386;28;20384;-58
2022/05/23 05:24:36;;;;;;;11.00;5.03;;;14.10;99.90;;;;;;5029314;28;20049;-58
2022/05/23 05:27:02;;;;;;;13.88;5.55;;;14.20;99.90;;;;;;5031204;28;20060;-58
2022/05/23 05:29:28;;;;;;;9.52;5.55;;;14.20;99.90;;;;;;5028679;28;20065;-60
2022/05/23 05:32:01;;;;;;;12.32;5.28;;;14.30;99.90;;;;;;5024905;28;20502;-57
2022/05/23 05:34:40;;;;;;;10.23;5.75;;;14.30;99.90;;;;;;5042277;28;20072;-60
2022/05/23 05:37:14;;;;;;;8.27;5.32;;;14.30;99.90;;;;;;5009630;28;20522;-60
2022/05/23 05:39:43;;;;;;;11.93;6.25;;;14.40;99.90;;;;;;5007861;28;20045;-60
2022/05/23 05:42:20;;;;;;;8.93;5.60;;;14.30;99.90;;;;;;5026207;28;20044;-59
2022/05/23 05:44:50;;;;;;;8.52;5.60;;;14.40;99.90;;;;;;5030120;28;20040;-58
2022/05/23 05:47:19;;;;;;;10.25;5.63;;;14.40;99.90;;;;;;4998236;28;20136;-59
2022/05/23 05:49:47;;;;;;;12.48;6.00;;;14.40;99.90;;;;;;5028168;28;20048;-57
2022/05/23 05:52:14;;;;;;;13.45;6.20;;;14.50;99.90;;;;;;4991007;28;20053;-59
2022/05/23 05:54:41;;;;;;;12.68;6.13;;;14.50;99.90;;;;;;5026623;28;20041;-59
2022/05/23 05:57:09;;;;;;;11.02;5.50;;;14.50;99.90;;;;;;5009924;28;20053;-57
2022/05/23 05:59:35;;;;;;;10.15;6.65;;;14.50;99.90;;;;;;4992897;28;20045;-59
2022/05/23 06:02:02;;;;;;;12.45;5.95;;;14.50;99.90;;;;;;5007108;28;20080;-58
2022/05/23 06:04:27;;;;;;;15.98;6.20;;;14.50;99.90;;;;;;5031114;28;20045;-58
2022/05/23 06:12:22;;;;;;;12.48;5.70;;;14.70;99.90;;;;;;5048877;28;20056;-60
2022/05/23 06:14:48;;;;;;;11.38;6.03;;;14.80;99.90;;;;;;5019654;28;20044;-61
2022/05/23 06:17:14;;;;;;;12.63;6.05;;;14.80;99.90;;;;;;5040878;28;20048;-66
2022/05/23 06:19:45;;;;;;;11.35;6.20;;;14.90;99.90;;;;;;5025705;28;20045;-66
2022/05/23 06:22:13;;;;;;;10.75;6.28;;;14.90;99.90;;;;;;5041465;28;20040;-66
2022/05/23 06:24:41;;;;;;;13.57;6.78;;;14.90;99.90;;;;;;5032539;28;20122;-59
2022/05/23 06:27:08;;;;;;;16.40;7.18;;;15.00;99.90;;;;;;5046410;28;20074;-59
2022/05/23 06:29:35;;;;;;;10.20;6.28;;;15.10;99.90;;;;;;5049778;28;20139;-59
2022/05/23 06:32:02;;;;;;;11.57;6.00;;;15.10;99.90;;;;;;5042554;28;20056;-60
2022/05/23 06:34:29;;;;;;;9.45;6.60;;;15.20;99.90;;;;;;5049927;28;20102;-59
2022/05/23 06:36:55;;;;;;;13.00;7.00;;;15.30;99.90;;;;;;5032409;28;20045;-59
2022/05/23 06:39:22;;;;;;;19.10;6.93;;;15.40;99.90;;;;;;5018137;28;20052;-59
2022/05/23 06:41:48;;;;;;;17.77;6.70;;;15.50;99.90;;;;;;5047924;28;20052;-59
2022/05/23 06:44:14;;;;;;;11.82;6.53;;;15.60;99.90;;;;;;5051984;28;20106;-59
2022/05/23 06:46:40;;;;;;;13.73;6.57;;;15.60;99.90;;;;;;5049649;28;20083;-59
2022/05/23 06:49:06;;;;;;;11.50;6.07;;;15.70;99.90;;;;;;5048046;28;20323;-59
2022/05/23 06:51:35;;;;;;;11.30;6.40;;;15.80;99.90;;;;;;5049976;28;20539;-60
2022/05/23 06:54:01;;;;;;;14.05;6.28;;;15.90;99.90;;;;;;5032189;28;20152;-59
2022/05/23 06:56:28;;;;;;;12.55;6.13;;;15.90;99.80;;;;;;5050470;28;20195;-59
2022/05/23 06:58:55;;;;;;;10.88;6.13;;;16.00;99.90;;;;;;5050455;28;20052;-59
2022/05/23 07:01:21;;;;;;;8.27;5.57;;;16.00;99.80;;;;;;5043396;28;20048;-60
2022/05/23 07:03:47;;;;;;;16.67;6.72;;;16.10;99.90;;;;;;5061227;28;20412;-59
2022/05/23 07:14:27;;;;;;;12.43;5.70;;;16.30;99.60;;;;;;5034324;28;20036;-59
2022/05/23 07:16:54;;;;;;;11.15;6.10;;;16.50;99.80;;;;;;5051328;28;20879;-59
2022/05/23 07:19:21;;;;;;;8.77;5.65;;;16.50;99.70;;;;;;5023943;28;20048;-59
2022/05/23 07:21:47;;;;;;;9.75;5.80;;;16.60;99.60;;;;;;5065395;28;20049;-59
2022/05/23 07:24:13;;;;;;;13.15;5.78;;;16.70;99.60;;;;;;5028969;28;20459;-60
2022/05/23 07:26:39;;;;;;;10.82;5.85;;;16.80;99.70;;;;;;5057917;28;20048;-59
2022/05/23 07:29:05;;;;;;;9.50;5.20;;;16.90;99.50;;;;;;5057517;28;20411;-60
2022/05/23 07:31:31;;;;;;;10.57;6.00;;;17.00;99.50;;;;;;5053508;28;20050;-60
2022/05/23 07:33:57;;;;;;;14.27;6.10;;;17.10;99.30;;;;;;5052816;28;20049;-59
2022/05/23 07:36:23;;;;;;;9.40;5.32;;;17.20;99.10;;;;;;5036934;28;20045;-59
2022/05/23 07:38:49;;;;;;;9.23;5.07;;;17.30;99.10;;;;;;5046051;28;20044;-60
2022/05/23 07:41:15;;;;;;;9.55;5.30;;;17.40;99.00;;;;;;5050946;28;20049;-59
2022/05/23 07:43:42;;;;;;;11.23;5.28;;;17.60;99.10;;;;;;5055557;28;20056;-59
2022/05/23 07:46:14;;;;;;;7.43;5.20;;;17.80;99.00;;;;;;5035715;28;20048;-60
2022/05/23 07:48:46;;;;;;;11.18;5.25;;;17.90;98.60;;;;;;5036875;28;20048;-59
2022/05/23 07:51:14;;;;;;;14.75;5.65;;;18.00;98.30;;;;;;5034423;28;20060;-60
2022/05/23 08:01:54;;;;;;;10.45;5.32;;;18.30;97.90;;;;;;5035684;28;20056;-59
2022/05/23 08:04:20;;;;;;;9.68;5.30;;;18.40;97.70;;;;;;5035797;28;20055;-59
2022/05/23 08:06:47;;;;;;;13.57;5.70;;;18.50;97.70;;;;;;5032452;28;20048;-59
2022/05/23 08:09:14;;;;;;;9.65;5.70;;;18.60;97.60;;;;;;5014460;28;20136;-59
2022/05/23 08:11:42;;;;;;;11.93;5.85;;;18.80;97.50;;;;;;5000033;28;20052;-59
2022/05/23 08:14:08;;;;;;;10.80;5.40;;;18.90;97.50;;;;;;5035609;28;20174;-59
2022/05/23 08:16:35;;;;;;;9.40;5.85;;;19.00;97.40;;;;;;4988915;28;20150;-60
2022/05/23 08:19:05;;;;;;;12.18;5.60;;;19.10;97.40;;;;;;5034634;28;20183;-59
2022/05/23 08:21:31;;;;;;;10.07;5.43;;;19.20;97.20;;;;;;5009778;28;20049;-58
2022/05/23 08:23:58;;;;;;;8.48;5.22;;;19.30;97.10;;;;;;5034062;28;20045;-60
2022/05/23 08:26:25;;;;;;;10.80;5.28;;;19.40;96.80;;;;;;5019744;28;20045;-59
2022/05/23 08:28:52;;;;;;;16.38;5.53;;;19.50;96.60;;;;;;5033031;28;20041;-59
2022/05/23 08:31:18;;;;;;;8.40;4.82;;;19.60;96.40;;;;;;5030639;28;20486;-59
2022/05/23 08:33:44;;;;;;;9.18;5.80;;;19.70;96.30;;;;;;5029783;28;20076;-60
2022/05/23 08:36:10;;;;;;;11.32;5.97;;;19.80;96.10;;;;;;5032970;28;20136;-59
2022/05/23 08:38:37;;;;;;;15.57;5.50;;;19.90;95.80;;;;;;5030352;28;20250;-59
2022/05/23 08:41:21;;;;;;;10.48;5.47;;;20.10;95.90;;;;;;5030239;28;20049;-58
2022/05/23 08:44:14;;;;;;;9.55;5.70;;;20.30;96.10;;;;;;5008396;28;20046;-59
2022/05/23 08:46:43;;;;;;;;;;;20.40;96.00;;;;;;5035236;28;20044;-60
2022/05/23 08:49:38;;;;;;;11.05;5.80;;;20.60;96.00;;;;;;5030372;28;19953;-60
2022/05/23 08:52:22;;;;;;;8.25;5.20;;;20.80;95.50;;;;;;5021579;28;20952;-60
2022/05/23 08:55:12;;;;;;;10.70;5.53;;;20.90;95.00;;;;;;5030388;28;20058;-60
2022/05/23 08:57:54;;;;;;;8.07;5.28;;;21.10;94.80;;;;;;5016891;28;20045;-59
2022/05/23 09:00:25;;;;;;;12.63;5.80;;;21.30;94.50;;;;;;5028267;28;20095;-60
2022/05/23 09:02:59;;;;;;;12.85;6.05;;;21.40;93.90;;;;;;5027160;28;20658;-60
2022/05/23 09:05:38;;;;;;;9.45;5.47;;;21.40;93.50;;;;;;5012076;28;20056;-59
2022/05/23 09:08:14;;;;;;;9.73;5.57;;;21.40;93.30;;;;;;5040114;28;20084;-60
2022/05/23 09:11:01;;;;;;;11.10;5.68;;;21.50;93.40;;;;;;5053524;28;20131;-59
2022/05/23 09:13:31;;;;;;;10.38;5.25;;;21.50;93.10;;;;;;5056017;28;20650;-60
2022/05/23 09:16:04;;;;;;;10.85;5.28;;;21.60;93.10;;;;;;5041375;28;20045;-60
2022/05/23 09:19:06;;;;;;;11.63;5.05;;;21.70;93.00;;;;;;5056870;28;20052;-59
2022/05/23 09:24:17;;;;;;;11.02;5.47;;;22.00;92.90;;;;;;5059793;28;20040;-59
2022/05/23 09:26:45;;;;;;;13.02;5.82;;;22.10;92.50;;;;;;5040353;28;20526;-60
2022/05/23 09:29:11;;;;;;;12.90;5.60;;;22.20;92.10;;;;;;5038394;28;20064;-60
2022/05/23 09:31:45;;;;;;;10.20;5.38;;;22.40;91.80;;;;;;5056764;28;20402;-60
2022/05/23 09:34:26;;;;;;;11.27;5.30;;;22.40;91.30;;;;;;5054428;28;20036;-60
2022/05/23 09:36:52;;;;;;;7.75;5.20;;;22.60;90.90;;;;;;5055574;28;20048;-60
2022/05/23 09:39:26;;;;;;;15.15;5.28;;;22.70;90.10;;;;;;5058526;28;20841;-60
2022/05/23 09:47:49;;;;;;;7.32;4.00;;;23.10;89.70;;;;;;5051167;28;20483;-60
2022/05/23 09:50:31;;;;;;;9.05;4.22;;;23.30;88.40;;;;;;5054454;28;20542;-60
2022/05/23 09:52:59;;;;;;;8.02;3.72;;;23.50;87.50;;;;;;5057816;28;20048;-60
2022/05/23 09:55:35;;;;;;;8.23;4.32;;;23.70;86.80;;;;;;5038739;28;20053;-59
2022/05/23 09:58:06;;;;;;;8.95;3.85;;;23.80;84.50;;;;;;5033937;28;20086;-60
2022/05/23 10:00:38;;;;;;;4.80;3.33;;;23.80;81.90;;;;;;5032075;28;20086;-60
2022/05/23 10:03:19;;;;;;;7.95;3.40;;;23.80;80.70;;;;;;5058577;28;20053;-60
2022/05/23 10:06:00;;;;;;;5.28;2.92;;;23.70;80.90;;;;;;5055522;28;20069;-60
2022/05/23 10:08:33;;;;;;;9.27;3.00;;;23.70;78.20;;;;;;5056093;28;20499;-60
2022/05/23 10:11:04;;;;;;;7.30;2.85;;;23.80;78.20;;;;;;5054319;28;20089;-60
2022/05/23 10:13:35;;;;;;;12.13;3.60;;;23.80;78.20;;;;;;5056490;28;20050;-60
2022/05/23 10:16:13;;;;;;;6.88;3.50;;;23.90;78.70;;;;;;5054589;28;20334;-60
2022/05/23 10:18:52;;;;;;;7.78;3.50;;;23.90;78.50;;;;;;5016030;28;20047;-60
2022/05/23 10:21:39;;;;;;;6.68;3.35;;;23.90;77.80;;;;;;5037693;28;20051;-60
2022/05/23 10:24:17;;;;;;;8.00;3.15;;;24.00;78.40;;;;;;5050201;28;20107;-60
2022/05/23 10:26:49;;;;;;;6.32;3.08;;;24.00;77.60;;;;;;5056727;28;20090;-60
2022/05/23 10:29:41;;;;;;;9.35;3.22;;;24.10;77.20;;;;;;5038670;28;20053;-59
2022/05/23 10:32:10;;;;;;;7.60;3.22;;;24.10;75.50;;;;;;5054860;28;20040;-60
2022/05/23 10:34:48;;;;;;;9.38;3.40;;;24.10;76.90;;;;;;5037611;28;20041;-60
2022/05/23 10:37:22;;;;;;;8.25;3.60;;;24.20;76.30;;;;;;5053269;28;20546;-60
2022/05/23 10:43:04;;;;;;;8.05;3.55;;;24.50;76.30;;;;;;5059048;28;20033;-60
2022/05/23 10:45:46;;;;;;;5.15;2.88;;;24.60;74.70;;;;;;5023998;28;20132;-60
2022/05/23 10:48:20;;;;;;;5.38;2.58;;;24.60;73.80;;;;;;5056898;28;20048;-60
2022/05/23 10:51:08;;;;;;;4.82;2.63;;;24.60;73.70;;;;;;5041337;28;20423;-60
2022/05/23 10:53:43;;;;;;;7.28;2.58;;;24.60;73.20;;;;;;5050867;28;20044;-60
2022/05/23 10:56:22;;;;;;;6.35;2.60;;;24.60;72.60;;;;;;5051784;28;20051;-60
2022/05/23 10:58:56;;;;;;;4.40;2.40;;;24.70;71.40;;;;;;5055233;28;20138;-61
2022/05/23 11:01:48;;;;;;;5.10;2.30;;;24.80;70.30;;;;;;5059528;28;20051;-60
2022/05/23 11:04:32;;;;;;;5.32;2.60;;;24.80;69.60;;;;;;5057209;28;20053;-60
2022/05/23 11:06:58;;;;;;;5.70;2.58;;;24.90;68.90;;;;;;5032432;28;20044;-60
2022/05/23 11:10:02;;;;;;;4.93;2.70;;;25.00;68.40;;;;;;5013997;28;20053;-60
2022/05/23 11:12:46;;;;;;;7.65;2.55;;;25.20;67.10;;;;;;4939717;28;20055;-60
2022/05/23 11:15:30;;;;;;;7.00;2.33;;;25.50;68.10;;;;;;5028226;28;20044;-60
2022/05/23 11:18:34;;;;;;;8.18;2.20;;;25.80;66.70;;;;;;5020972;28;20167;-60
2022/05/23 11:21:05;;;;;;;6.55;2.50;;;26.00;64.70;;;;;;5013953;28;20083;-61
2022/05/23 11:23:45;;;;;;;4.38;2.00;;;26.10;63.20;;;;;;5026248;28;20056;-60
2022/05/23 11:26:21;;;;;;;5.68;2.47;;;26.20;61.90;;;;;;5031879;28;20479;-60
2022/05/23 11:34:37;;;;;;;8.18;2.58;;;26.60;61.30;;;;;;5014858;28;20612;-60
2022/05/23 11:39:56;;;;;;;5.03;2.33;;;26.80;60.30;;;;;;5029360;28;20059;-61
2022/05/23 11:42:24;;;;;;;6.73;2.30;;;26.90;60.90;;;;;;5029412;28;20135;-60
2022/05/23 11:44:55;;;;;;;9.93;2.38;;;27.10;59.70;;;;;;5012193;28;20045;-61
2022/05/23 11:47:25;;;;;;;3.88;2.22;;;27.10;59.00;;;;;;5029700;28;20416;-61
2022/05/23 11:50:00;;;;;;;3.63;2.20;;;27.30;59.20;;;;;;5029077;28;20430;-61
2022/05/23 11:52:47;;;;;;;5.60;2.22;;;27.40;59.10;;;;;;5022490;28;20048;-61
2022/05/23 11:55:50;;;;;;;6.13;1.98;;;27.50;60.00;;;;;;5027391;28;20068;-61
2022/05/23 11:58:41;;;;;;;4.80;2.10;;;27.50;58.90;;;;;;5017694;28;20481;-61
2022/05/23 12:01:15;;;;;;;5.22;2.05;;;27.40;58.20;;;;;;5023862;28;20041;-60
2022/05/23 12:03:47;;;;;;;3.60;1.70;;;27.30;58.60;;;;;;5034128;28;20049;-61
2022/05/23 12:06:22;;;;;;;5.80;2.25;;;27.40;59.60;;;;;;5023428;28;20037;-61
2022/05/23 12:09:26;;;;;;;3.97;1.88;;;27.50;58.40;;;;;;5042458;28;20590;-60
2022/05/23 12:12:13;;;;;;;5.93;2.00;;;27.50;58.00;;;;;;5049833;28;20048;-61
2022/05/23 12:14:39;;;;;;;3.03;1.70;;;27.40;57.80;;;;;;5029469;28;20537;-60
2022/05/23 12:17:12;;;;;;;3.83;1.98;;;27.50;58.50;;;;;;5047337;28;20044;-61
2022/05/23 12:19:40;;;;;;;2.67;1.60;;;27.60;58.70;;;;;;5023536;28;20037;-61
2022/05/23 12:22:18;;;;;;;2.92;1.80;;;27.80;58.10;;;;;;5053450;28;20052;-61
2022/05/23 12:25:07;;;;;;;5.63;1.92;;;27.80;57.10;;;;;;5051058;28;20044;-61
2022/05/23 12:27:45;;;;;;;4.85;1.98;;;27.60;56.20;;;;;;5034944;28;20040;-60
2022/05/23 12:30:17;;;;;;;3.25;1.55;;;27.40;56.30;;;;;;5049009;28;20075;-61
2022/05/23 12:32:47;;;;;;;4.32;2.00;;;27.10;56.10;;;;;;5039784;28;20061;-61
2022/05/23 12:35:15;;;;;;;3.30;1.63;;;26.80;56.20;;;;;;5051429;28;20471;-60
2022/05/23 12:38:00;;;;;;;7.13;2.08;;;26.70;57.10;;;;;;5052064;28;20082;-61
2022/05/23 12:40:32;;;;;;;4.20;1.90;;;26.50;56.80;;;;;;5049349;28;20122;-60
2022/05/23 12:43:17;;;;;;;;;;;26.40;56.90;;;;;;5035782;28;20107;-60
2022/05/23 12:45:56;;;;;;;5.38;1.70;;;26.30;58.30;;;;;;5035331;28;20387;-61
2022/05/23 12:48:30;;;;;;;4.60;1.75;;;26.10;57.70;;;;;;5050312;28;20501;-60
2022/05/23 12:50:56;;;;;;;4.50;1.95;;;26.00;57.70;;;;;;5054212;28;20049;-61
2022/05/23 12:53:38;;;;;;;4.57;1.98;;;25.90;58.00;;;;;;5049287;28;21041;-60
2022/05/23 12:56:44;;;;;;;8.98;1.88;;;25.80;58.60;;;;;;5051602;28;20817;-60
2022/05/23 12:59:35;;;;;;;6.63;2.38;;;25.70;58.90;;;;;;4968430;28;20069;-60
2022/05/23 13:02:07;;;;;;;3.30;1.92;;;25.60;59.30;;;;;;5050677;28;20048;-61
2022/05/23 13:04:45;;;;;;;5.85;2.33;;;25.50;59.40;;;;;;5048496;28;20143;-60
2022/05/23 13:07:13;;;;;;;7.93;2.22;;;25.50;59.80;;;;;;5050521;28;20049;-60
2022/05/23 13:10:02;;;;;;;7.72;2.15;;;25.40;59.70;;;;;;5050864;28;20107;-61
2022/05/23 13:12:35;;;;;;;8.65;1.98;;;25.40;60.00;;;;;;5050294;28;20067;-60
2022/05/23 13:15:01;;;;;;;6.20;1.88;;;25.40;60.30;;;;;;5050543;28;20128;-59
2022/05/23 13:17:44;;;;;;;3.78;2.00;;;25.30;60.10;;;;;;5037166;28;20478;-60
2022/05/23 13:23:21;;;;;;;3.33;1.90;;;25.20;60.80;;;;;;5052486;28;20094;-60
2022/05/23 13:25:48;;;;;;;3.55;2.10;;;25.10;60.90;;;;;;5047593;28;20131;-61
2022/05/23 13:28:15;;;;;;;3.50;1.90;;;25.00;61.00;;;;;;5037306;28;20066;-60
2022/05/23 13:30:46;;;;;;;3.30;1.83;;;25.00;61.30;;;;;;5050455;28;20073;-61
2022/05/23 13:33:15;;;;;;;3.42;2.00;;;25.00;61.90;;;;;;5031265;28;20139;-61
2022/05/23 13:35:44;;;;;;;11.15;2.17;;;24.90;61.50;;;;;;5037338;28;20048;-60
2022/05/23 13:38:16;;;;;;;6.75;2.20;;;24.90;61.80;;;;;;5034422;28;20072;-60
2022/05/23 13:40:45;;;;;;;5.22;2.33;;;24.80;62.30;;;;;;5049673;28;20049;-61
2022/05/23 13:43:45;;;;;;;6.82;2.72;;;24.80;62.30;;;;;;5046789;28;20492;-61
2022/05/23 13:46:20;;;;;;;7.85;2.60;;;24.70;64.00;;;;;;5014283;28;20056;-62
2022/05/23 13:48:53;;;;;;;3.88;1.92;;;24.70;63.60;;;;;;5064117;28;20036;-61
2022/05/23 13:51:42;;;;;;;5.97;2.30;;;24.70;63.90;;;;;;5050304;28;20049;-61
2022/05/23 13:54:40;;;;;;;4.15;2.30;;;24.80;63.50;;;;;;5049973;28;20124;-61
2022/05/23 13:57:13;;;;;;;4.90;2.30;;;24.80;63.80;;;;;;5047261;28;20052;-61
2022/05/23 13:59:41;;;;;;;;;;;24.80;63.80;;;;;;5033890;28;20076;-61
2022/05/23 14:02:19;;;;;;;4.20;2.00;;;24.80;64.20;;;;;;5048211;28;19923;-61
2022/05/23 14:04:47;;;;;;;8.60;2.35;;;24.80;64.40;;;;;;5048228;28;20494;-61
2022/05/23 14:07:17;;;;;;;3.15;2.15;;;24.80;65.90;;;;;;5051706;28;20044;-61
2022/05/23 14:09:49;;;;;;;7.68;2.55;;;24.80;66.40;;;;;;5052552;28;20335;-61
2022/05/23 14:12:24;;;;;;;5.85;2.65;;;24.80;67.00;;;;;;5047858;28;20049;-61